Time;durP1;ratioP1;P1;durP2;ratioP2;P2;SDS_P1;SDS_P2;PMS_P1;PMS_P2;Temp;Humidity;BMP_temperature;BMP_pressure;BME280_temperature;BME280_humidity;BME280_pressure;Samples;Min_cycle;Max_cycle;Signal;HPM_P1;HPM_P2
2021/07/27 00:01:07;;;;;;;11;7.1;;;;;;;20.69;100;98203.83;;;;
2021/07/27 00:11:07;;;;;;;12.3;8.3;;;;;;;20.56;100;98255.41;;;;
2021/07/27 00:21:07;;;;;;;20.8;12;;;;;;;20.49;100;98293.68;;;;
2021/07/27 00:31:08;;;;;;;15.9;12;;;;;;;20.65;100;98278.94;;;;
2021/07/27 00:41:07;;;;;;;14.9;9.4;;;;;;;20.55;100;98250.3;;;;
2021/07/27 00:51:07;;;;;;;12.3;8.5;;;;;;;20.44;100;98230.3;;;;
2021/07/27 01:01:07;;;;;;;9.2;7.5;;;;;;;20.41;100;98217.38;;;;
2021/07/27 01:11:07;;;;;;;9.1;7.5;;;;;;;20.2;100;98207;;;;
2021/07/27 01:42:04;;;;;;;10.4;7.6;;;;;;;20.01;100;98208.05;;;;
2021/07/27 01:51:07;;;;;;;9.5;7.4;;;;;;;19.93;100;98233.77;;;;
2021/07/27 02:01:07;;;;;;;14;9.2;;;;;;;19.99;100;98270.55;;;;
2021/07/27 02:21:07;;;;;;;11.3;8.6;;;;;;;20.11;100;98354.3;;;;
2021/07/27 02:31:12;;;;;;;14.2;12.2;;;;;;;20.03;100;98363.59;;;;
2021/07/27 02:41:07;;;;;;;12.8;9.8;;;;;;;20.17;100;98382.9;;;;
2021/07/27 02:51:07;;;;;;;10;6.9;;;;;;;20.08;100;98358.59;;;;
2021/07/27 03:01:06;;;;;;;10.4;7.8;;;;;;;19.92;100;98330.66;;;;
2021/07/27 03:11:06;;;;;;;11.7;9.5;;;;;;;19.85;100;98318.88;;;;
2021/07/27 03:21:06;;;;;;;15.3;9.2;;;;;;;19.89;100;98323.2;;;;
2021/07/27 03:31:06;;;;;;;17;10.5;;;;;;;19.88;100;98305.23;;;;
2021/07/27 03:41:06;;;;;;;15.6;9.8;;;;;;;19.84;100;98306.35;;;;
2021/07/27 03:51:07;;;;;;;11.6;8.2;;;;;;;19.97;100;98304.92;;;;
2021/07/27 04:01:06;;;;;;;11.1;8.7;;;;;;;20.07;100;98299.55;;;;
2021/07/27 04:11:06;;;;;;;14.3;7.6;;;;;;;20.38;100;98297.49;;;;
2021/07/27 04:21:06;;;;;;;8;6.3;;;;;;;20.69;100;98285.23;;;;
2021/07/27 04:31:06;;;;;;;10.9;7.5;;;;;;;20.84;100;98282.19;;;;
2021/07/27 04:41:06;;;;;;;10.2;5.6;;;;;;;20.93;100;98279.12;;;;
2021/07/27 04:51:07;;;;;;;10.4;6.3;;;;;;;21.12;100;98278.05;;;;
2021/07/27 05:01:07;;;;;;;10.2;7.2;;;;;;;21.44;100;98263.32;;;;
2021/07/27 05:11:07;;;;;;;12;7.6;;;;;;;22.01;100;98255.22;;;;
2021/07/27 05:21:07;;;;;;;18.2;6.9;;;;;;;22.41;100;98245.82;;;;
2021/07/27 05:31:07;;;;;;;8.4;5.5;;;;;;;22.9;100;98255.97;;;;
2021/07/27 05:41:08;;;;;;;7.6;4.5;;;;;;;23.17;100;98264.52;;;;
2021/07/27 05:51:10;;;;;;;26.5;6.9;;;;;;;23.66;100;98253.32;;;;
2021/07/27 06:01:08;;;;;;;9.2;5.8;;;;;;;24.58;100;98271.92;;;;
2021/07/27 06:11:11;;;;;;;9.9;7.5;;;;;;;24.81;100;98290.62;;;;
2021/07/27 06:21:10;;;;;;;9.8;5.7;;;;;;;24.62;100;98327.8;;;;
2021/07/27 06:31:11;;;;;;;16.9;7.9;;;;;;;24.63;100;98359.69;;;;
2021/07/27 06:41:11;;;;;;;10.2;7.1;;;;;;;24.25;100;98366.25;;;;
2021/07/27 06:51:12;;;;;;;9.9;6.2;;;;;;;24.02;100;98386.01;;;;
2021/07/27 07:01:13;;;;;;;9.7;6.5;;;;;;;23.87;100;98401.05;;;;
2021/07/27 07:11:13;;;;;;;10.3;7.7;;;;;;;23.52;100;98407.45;;;;
2021/07/27 07:21:14;;;;;;;135;69.9;;;;;;;23.33;100;98419.64;;;;
2021/07/27 07:31:16;;;;;;;14.1;8.1;;;;;;;23.18;100;98431.07;;;;
2021/07/27 07:41:14;;;;;;;11.2;8;;;;;;;23.31;100;98451.48;;;;
2021/07/27 07:51:15;;;;;;;9.9;7.1;;;;;;;23.44;100;98449.91;;;;
2021/07/27 08:01:15;;;;;;;9.8;7;;;;;;;23.76;100;98461.63;;;;
2021/07/27 08:11:16;;;;;;;10.9;8.7;;;;;;;23.87;100;98467.11;;;;
2021/07/27 08:21:16;;;;;;;10.4;8.2;;;;;;;24.7;100;98469.88;;;;
2021/07/27 08:31:17;;;;;;;11.9;8.2;;;;;;;24.51;100;98473.92;;;;
2021/07/27 08:41:18;;;;;;;19.3;8.4;;;;;;;25.13;100;98492.42;;;;
2021/07/27 08:51:21;;;;;;;15.3;9.3;;;;;;;25.37;100;98482.39;;;;
2021/07/27 09:01:19;;;;;;;15.5;9.7;;;;;;;25.5;100;98500;;;;
2021/07/27 09:11:20;;;;;;;14.8;7.6;;;;;;;25.9;100;98507.5;;;;
2021/07/27 09:21:21;;;;;;;12.9;9.9;;;;;;;25.48;100;98496.84;;;;
2021/07/27 09:31:22;;;;;;;17;11.9;;;;;;;24.98;100;98496.5;;;;
2021/07/27 09:41:23;;;;;;;12.9;9.6;;;;;;;25;100;98516.95;;;;
2021/07/27 09:51:24;;;;;;;18.5;10.7;;;;;;;25.21;100;98520.73;;;;
2021/07/27 10:01:25;;;;;;;12.6;11.3;;;;;;;25.37;100;98530.05;;;;
2021/07/27 10:11:25;;;;;;;15.2;10.6;;;;;;;25.81;100;98525.75;;;;
2021/07/27 10:21:28;;;;;;;16.7;12.7;;;;;;;26.43;100;98517.95;;;;
2021/07/27 10:31:27;;;;;;;14.4;10.8;;;;;;;25.88;100;98514.63;;;;
2021/07/27 10:41:28;;;;;;;16.5;10.3;;;;;;;26.13;100;98500.55;;;;
2021/07/27 10:51:29;;;;;;;11.2;9.3;;;;;;;26.41;100;98505.75;;;;
2021/07/27 11:01:30;;;;;;;15.8;10.2;;;;;;;26.67;100;98510.52;;;;
2021/07/27 11:11:31;;;;;;;10.7;9.6;;;;;;;26.86;100;98511.88;;;;
2021/07/27 11:21:31;;;;;;;11.4;10.1;;;;;;;27.42;100;98486.04;;;;
2021/07/27 11:31:32;;;;;;;9.5;8.1;;;;;;;27.55;100;98461.34;;;;
2021/07/27 11:41:34;;;;;;;14.4;9.8;;;;;;;27.48;100;98465.02;;;;
2021/07/27 11:51:35;;;;;;;10.8;8.2;;;;;;;27.37;100;98474.68;;;;
2021/07/27 12:01:36;;;;;;;10.2;7.1;;;;;;;27.46;100;98469.4;;;;
2021/07/27 12:11:37;;;;;;;11.7;7.3;;;;;;;27.64;100;98464.33;;;;
2021/07/27 12:21:38;;;;;;;11;7.6;;;;;;;28.14;100;98455.07;;;;
2021/07/27 12:31:39;;;;;;;9.2;6.9;;;;;;;27.5;100;98448.76;;;;
2021/07/27 12:41:40;;;;;;;10.7;8.6;;;;;;;28.17;100;98432.83;;;;
2021/07/27 12:51:41;;;;;;;9.4;6.4;;;;;;;28.16;100;98431.25;;;;
2021/07/27 13:01:42;;;;;;;11.2;7.7;;;;;;;28.25;100;98439;;;;
2021/07/27 13:11:43;;;;;;;9.7;8;;;;;;;29.29;100;98450.08;;;;
2021/07/27 13:21:44;;;;;;;12.1;7.7;;;;;;;29.71;100;98434.28;;;;
2021/07/27 13:31:46;;;;;;;8.1;5.3;;;;;;;29.93;98.85547;98426.91;;;;
2021/07/27 13:41:47;;;;;;;9.6;6.5;;;;;;;29.7;100;98438.27;;;;
2021/07/27 13:51:48;;;;;;;8.2;5.5;;;;;;;29.82;95.43359;98448.63;;;;
2021/07/27 14:01:50;;;;;;;7.6;5.3;;;;;;;29.93;95.71582;98438.81;;;;
2021/07/27 14:11:51;;;;;;;9;4.8;;;;;;;30.16;91.50293;98406.41;;;;
2021/07/27 14:21:52;;;;;;;11.3;5.5;;;;;;;30.56;82.33301;98392.88;;;;
2021/07/27 14:31:54;;;;;;;7.9;4.9;;;;;;;30.63;76.88379;98410.13;;;;
2021/07/27 14:41:55;;;;;;;6.3;3.5;;;;;;;30.51;76.99219;98388.64;;;;
2021/07/27 14:51:57;;;;;;;8.6;5.6;;;;;;;30.94;72.21973;98383.25;;;;
2021/07/27 15:01:58;;;;;;;7.7;3.4;;;;;;;30.88;71.00293;98385.06;;;;
2021/07/27 15:11:59;;;;;;;6.7;3.4;;;;;;;31.2;74.81445;98383.23;;;;
2021/07/27 15:22:01;;;;;;;7.3;4.2;;;;;;;34.05;65.6875;98392.52;;;;
2021/07/27 15:32:03;;;;;;;6.5;3.7;;;;;;;35.5;57.05859;98416.28;;;;
2021/07/27 15:42:05;;;;;;;6.2;3.7;;;;;;;36.44;50.99902;98419.3;;;;
2021/07/27 15:52:07;;;;;;;6.3;3.8;;;;;;;36.94;48.77344;98422.88;;;;
2021/07/27 16:02:09;;;;;;;8.8;4.3;;;;;;;37.45;43.28809;98420.28;;;;
2021/07/27 16:12:12;;;;;;;8;3.6;;;;;;;37.78;38.77441;98415.05;;;;
2021/07/27 16:22:14;;;;;;;6.9;3.4;;;;;;;34.39;45.32227;98405.36;;;;
2021/07/27 16:32:16;;;;;;;7.4;4.3;;;;;;;34.23;49.21973;98397.31;;;;
2021/07/27 16:42:19;;;;;;;7;4.3;;;;;;;35.24;48.06543;98401.98;;;;
2021/07/27 16:52:22;;;;;;;9.4;5.5;;;;;;;35.63;45.81738;98394.38;;;;
2021/07/27 17:02:23;;;;;;;6.7;3.7;;;;;;;35.27;50.90527;98400.25;;;;
2021/07/27 17:12:25;;;;;;;7.4;3.9;;;;;;;34.5;57.61816;98393.66;;;;
2021/07/27 17:22:27;;;;;;;7.6;3.6;;;;;;;32.13;63.59473;98387.05;;;;
2021/07/27 17:32:29;;;;;;;9.2;5.4;;;;;;;29.62;74.66406;98379.34;;;;
2021/07/27 17:42:32;;;;;;;8.3;5.1;;;;;;;28.13;81.11035;98376.69;;;;
2021/07/27 17:52:32;;;;;;;6.2;4.5;;;;;;;27.17;89.73828;98377;;;;
2021/07/27 18:02:35;;;;;;;14.8;7.4;;;;;;;26.3;97.97852;98372.47;;;;
2021/07/27 18:12:34;;;;;;;10.7;7.6;;;;;;;25.76;100;98382.62;;;;
2021/07/27 18:22:35;;;;;;;11.6;10.3;;;;;;;25.25;100;98378.05;;;;
2021/07/27 18:32:36;;;;;;;18.3;11.8;;;;;;;24.58;100;98368.37;;;;
2021/07/27 18:42:37;;;;;;;18.5;12.2;;;;;;;23.8;100;98379.84;;;;
2021/07/27 18:52:40;;;;;;;19.4;12.7;;;;;;;23.5;100;98382.3;;;;
2021/07/27 19:02:37;;;;;;;17.7;13.3;;;;;;;23.14;100;98389.83;;;;
2021/07/27 19:12:39;;;;;;;13.1;9.7;;;;;;;22.84;100;98390.23;;;;
2021/07/27 19:22:38;;;;;;;23.2;19.1;;;;;;;22.46;100;98386.27;;;;
2021/07/27 19:32:38;;;;;;;9.2;7.3;;;;;;;22.23;100;98385.84;;;;
2021/07/27 19:42:45;;;;;;;12.9;9.1;;;;;;;22.15;100;98384.25;;;;
2021/07/27 19:52:40;;;;;;;11.5;9;;;;;;;21.96;100;98377.16;;;;
2021/07/27 20:02:39;;;;;;;47.4;33.7;;;;;;;21.83;100;98394.33;;;;
2021/07/27 20:12:39;;;;;;;21.3;14.2;;;;;;;21.68;100;98403.66;;;;
2021/07/27 20:22:39;;;;;;;21.5;14.9;;;;;;;21.61;100;98398.94;;;;
2021/07/27 20:32:39;;;;;;;15.9;10;;;;;;;21.66;100;98409.52;;;;
2021/07/27 20:42:40;;;;;;;14.2;11.7;;;;;;;21.68;100;98420.91;;;;
2021/07/27 20:52:40;;;;;;;17.8;12;;;;;;;21.58;100;98432.62;;;;
2021/07/27 21:02:40;;;;;;;15.9;12.3;;;;;;;21.38;100;98437.58;;;;
2021/07/27 21:12:40;;;;;;;16.6;11.3;;;;;;;21.25;100;98433.58;;;;
2021/07/27 21:22:40;;;;;;;13.5;10.8;;;;;;;20.86;100;98443.44;;;;
2021/07/27 21:32:41;;;;;;;20;10.3;;;;;;;20.66;100;98447.55;;;;
2021/07/27 21:42:41;;;;;;;16.5;10.4;;;;;;;20.47;100;98448.55;;;;
2021/07/27 21:52:40;;;;;;;21.2;13.1;;;;;;;20.33;100;98446.45;;;;
2021/07/27 22:02:41;;;;;;;14;9.9;;;;;;;20.29;100;98447.57;;;;
2021/07/27 22:12:41;;;;;;;20.4;10.4;;;;;;;20.4;100;98443;;;;
2021/07/27 22:22:41;;;;;;;14.7;8.9;;;;;;;20.59;100;98432.63;;;;
2021/07/27 22:32:41;;;;;;;12.3;8.4;;;;;;;20.61;100;98429.53;;;;
2021/07/27 22:42:41;;;;;;;11.2;8.5;;;;;;;20.48;100;98420.78;;;;
2021/07/27 22:52:41;;;;;;;13.5;9.5;;;;;;;20.16;100;98427.86;;;;
2021/07/27 23:02:41;;;;;;;13.8;9.5;;;;;;;20.16;100;98424.34;;;;
2021/07/27 23:12:41;;;;;;;12.5;9.1;;;;;;;20.2;100;98401.3;;;;
2021/07/27 23:22:42;;;;;;;16;9.3;;;;;;;20.06;100;98385.52;;;;
2021/07/27 23:32:40;;;;;;;9.5;8.3;;;;;;;20.04;100;98384.33;;;;
2021/07/27 23:42:40;;;;;;;11.2;8.4;;;;;;;19.97;100;98379.57;;;;
2021/07/27 23:52:40;;;;;;;12.1;9.3;;;;;;;20.04;100;98374.17;;;;
